Time;durP1;ratioP1;P1;durP2;ratioP2;P2;SDS_P1;SDS_P2;PMS_P1;PMS_P2;Temp;Humidity;BMP_temperature;BMP_pressure;BME280_temperature;BME280_humidity;BME280_pressure;Samples;Min_cycle;Max_cycle;Signal;HPM_P1;HPM_P2
2022/09/04 00:04:52;;;;;;;7.93;5.93;;;13.00;99.90;;;;;;9672305;30;20054;-88
2022/09/04 00:10:14;;;;;;;10.50;6.32;;;12.90;99.90;;;;;;9679130;30;20042;-87
2022/09/04 00:15:55;;;;;;;8.82;6.88;;;12.90;99.90;;;;;;9676015;30;20056;-86
2022/09/04 00:21:27;;;;;;;9.32;6.90;;;12.80;99.90;;;;;;9586049;30;20619;-86
2022/09/04 00:26:53;;;;;;;10.13;7.18;;;12.80;99.90;;;;;;9694171;30;20030;-87
2022/09/04 00:32:17;;;;;;;9.07;7.05;;;12.70;99.90;;;;;;9683669;30;20037;-87
2022/09/04 00:37:24;;;;;;;9.70;6.78;;;12.70;99.90;;;;;;9693292;30;20048;-85
2022/09/04 00:42:43;;;;;;;15.38;8.88;;;12.70;99.90;;;;;;9691867;30;20053;-86
2022/09/04 00:48:15;;;;;;;16.55;9.45;;;12.60;99.90;;;;;;9677573;30;20041;-86
2022/09/04 00:53:51;;;;;;;17.10;8.82;;;12.60;99.90;;;;;;9676238;30;20058;-86
2022/09/04 00:59:19;;;;;;;16.98;10.30;;;12.50;99.90;;;;;;9665684;30;20069;-86
2022/09/04 01:04:44;;;;;;;17.75;9.93;;;12.40;99.90;;;;;;9690708;30;20042;-86
2022/09/04 01:10:03;;;;;;;16.07;9.03;;;12.30;99.90;;;;;;9680542;30;20038;-86
2022/09/04 01:15:22;;;;;;;16.05;9.80;;;12.30;99.90;;;;;;9681567;30;20042;-85
2022/09/04 01:20:34;;;;;;;19.85;10.45;;;12.30;99.90;;;;;;9685637;30;20053;-86
2022/09/04 01:25:59;;;;;;;18.65;10.00;;;12.30;99.90;;;;;;9682563;30;20083;-85
2022/09/04 01:31:19;;;;;;;20.88;12.55;;;12.20;99.90;;;;;;9698737;30;20033;-86
2022/09/04 01:36:41;;;;;;;19.58;11.85;;;12.30;99.90;;;;;;9681779;30;20038;-85
2022/09/04 01:42:13;;;;;;;19.30;10.98;;;12.40;99.90;;;;;;9684601;30;20053;-87
2022/09/04 01:47:32;;;;;;;14.48;9.32;;;12.50;99.90;;;;;;9682871;30;20038;-86
2022/09/04 01:52:45;;;;;;;13.45;8.60;;;12.60;99.90;;;;;;9690606;30;20108;-86
2022/09/04 01:57:51;;;;;;;13.45;8.13;;;12.60;99.90;;;;;;9683028;30;20046;-86
2022/09/04 02:03:07;;;;;;;10.70;7.70;;;12.70;99.90;;;;;;9678252;30;20499;-86
2022/09/04 02:08:34;;;;;;;12.02;8.23;;;12.60;99.90;;;;;;9669383;30;20034;-85
2022/09/04 02:13:52;;;;;;;9.75;7.60;;;12.60;99.90;;;;;;9664164;30;20042;-85
2022/09/04 02:18:59;;;;;;;9.77;7.20;;;12.50;99.90;;;;;;9679501;30;20050;-87
2022/09/04 02:24:24;;;;;;;11.05;6.50;;;12.50;99.90;;;;;;9679394;30;20034;-87
2022/09/04 02:29:38;;;;;;;9.80;6.82;;;12.40;99.90;;;;;;9701448;30;20549;-88
2022/09/04 02:35:08;;;;;;;11.00;7.45;;;12.40;99.90;;;;;;9676934;30;20097;-86
2022/09/04 02:40:22;;;;;;;11.13;7.15;;;12.40;99.90;;;;;;9662031;30;20807;-86
2022/09/04 02:45:33;;;;;;;10.35;6.60;;;12.40;99.90;;;;;;9684913;30;20804;-86
2022/09/04 02:50:58;;;;;;;10.63;7.32;;;12.40;99.90;;;;;;9673055;30;20162;-88
2022/09/04 02:56:08;;;;;;;10.60;7.25;;;12.40;99.90;;;;;;9681547;30;20424;-87
2022/09/04 03:01:27;;;;;;;11.85;7.82;;;12.40;99.90;;;;;;9675866;30;20046;-87
2022/09/04 03:06:30;;;;;;;9.43;6.95;;;12.40;99.90;;;;;;9695769;30;20045;-88
2022/09/04 03:11:42;;;;;;;12.23;7.32;;;12.50;99.90;;;;;;9678596;30;20038;-87
2022/09/04 03:17:04;;;;;;;11.05;7.03;;;12.50;99.90;;;;;;9681154;30;20052;-87
2022/09/04 03:22:18;;;;;;;10.30;6.53;;;12.50;99.90;;;;;;9672072;30;20045;-86
2022/09/04 03:27:20;;;;;;;10.57;7.03;;;12.60;99.90;;;;;;9670268;30;20066;-87
2022/09/04 03:32:29;;;;;;;10.40;6.68;;;12.70;99.90;;;;;;9674122;30;20577;-87
2022/09/04 03:37:51;;;;;;;11.70;7.28;;;12.70;99.90;;;;;;9688538;30;20080;-88
2022/09/04 03:43:12;;;;;;;10.80;7.20;;;12.80;99.90;;;;;;9680461;30;20050;-87
2022/09/04 03:48:41;;;;;;;10.45;6.72;;;12.80;99.90;;;;;;9680137;30;20042;-88
2022/09/04 03:54:02;;;;;;;11.43;7.18;;;12.80;99.90;;;;;;9694453;30;20495;-88
2022/09/04 03:59:05;;;;;;;12.02;6.82;;;12.80;99.90;;;;;;9682611;30;20057;-87
2022/09/04 04:04:13;;;;;;;8.77;6.47;;;12.80;99.90;;;;;;9675255;30;20034;-88
2022/09/04 04:09:35;;;;;;;11.98;7.25;;;12.80;99.90;;;;;;9685179;30;20050;-87
2022/09/04 04:14:52;;;;;;;10.00;6.75;;;12.80;99.90;;;;;;9682393;30;20042;-89
2022/09/04 04:20:05;;;;;;;8.88;6.45;;;12.80;99.90;;;;;;9682927;30;20058;-89
2022/09/04 04:25:32;;;;;;;9.57;6.88;;;12.90;99.90;;;;;;9669533;30;20038;-90
2022/09/04 04:30:47;;;;;;;8.20;5.90;;;12.90;99.90;;;;;;9684412;30;20702;-87
2022/09/04 04:36:01;;;;;;;9.82;6.97;;;12.90;99.90;;;;;;9679959;30;20071;-89
2022/09/04 04:41:13;;;;;;;10.10;6.53;;;13.00;99.90;;;;;;9692714;30;20047;-87
2022/09/04 04:46:46;;;;;;;10.75;7.30;;;13.00;99.90;;;;;;9688924;30;20048;-88
2022/09/04 04:52:17;;;;;;;11.80;7.30;;;13.10;99.90;;;;;;9680000;30;20116;-87
2022/09/04 04:57:45;;;;;;;13.27;7.93;;;13.10;99.90;;;;;;9697116;30;20053;-88
2022/09/04 05:03:17;;;;;;;10.77;7.13;;;13.20;99.90;;;;;;9691227;30;20387;-87
2022/09/04 05:08:34;;;;;;;11.75;8.13;;;13.20;99.90;;;;;;9677871;30;20081;-87
2022/09/04 05:13:56;;;;;;;12.18;8.40;;;13.20;99.90;;;;;;9681051;30;20046;-88
2022/09/04 05:19:26;;;;;;;10.52;7.25;;;13.30;99.90;;;;;;9674069;30;20533;-88
2022/09/04 05:24:47;;;;;;;10.77;7.97;;;13.30;99.90;;;;;;9688311;30;20037;-89
2022/09/04 05:29:59;;;;;;;11.30;7.88;;;13.30;99.90;;;;;;9679669;30;20459;-87
2022/09/04 05:35:15;;;;;;;10.13;7.22;;;13.40;99.90;;;;;;9690143;30;20032;-87
2022/09/04 05:40:28;;;;;;;10.13;7.25;;;13.50;99.90;;;;;;9682737;30;20058;-88
2022/09/04 05:45:48;;;;;;;12.85;7.80;;;13.60;99.90;;;;;;9678398;30;20028;-89
2022/09/04 05:51:37;;;;;;;11.52;7.63;;;13.50;99.90;;;;;;9660742;30;20448;-87
2022/09/04 05:56:49;;;;;;;12.15;8.20;;;13.60;99.90;;;;;;9684404;30;20061;-87
2022/09/04 06:02:20;;;;;;;10.75;7.82;;;13.70;99.90;;;;;;9683627;30;20464;-88
2022/09/04 06:07:44;;;;;;;11.63;7.93;;;13.80;99.90;;;;;;9686631;30;20042;-86
2022/09/04 06:13:17;;;;;;;11.40;8.40;;;13.80;99.90;;;;;;9675233;30;20026;-86
2022/09/04 06:18:43;;;;;;;11.18;8.50;;;13.90;99.90;;;;;;9673009;30;20555;-87
2022/09/04 06:24:01;;;;;;;13.68;8.70;;;13.90;99.90;;;;;;9695988;30;20092;-86
2022/09/04 06:29:19;;;;;;;11.88;8.13;;;13.90;99.90;;;;;;9681422;30;20125;-87
2022/09/04 06:34:40;;;;;;;12.07;7.82;;;14.00;99.90;;;;;;9686349;30;20631;-86
2022/09/04 06:40:02;;;;;;;11.57;8.35;;;14.20;99.90;;;;;;9674424;30;20057;-88
2022/09/04 06:45:14;;;;;;;14.57;9.77;;;14.50;99.90;;;;;;9681892;30;20045;-86
2022/09/04 06:50:15;;;;;;;9.32;7.28;;;14.80;99.90;;;;;;9689220;30;20077;-90
2022/09/04 06:55:24;;;;;;;11.38;7.70;;;15.10;99.90;;;;;;9688025;30;20165;-88
2022/09/04 07:00:29;;;;;;;12.18;8.30;;;15.30;99.90;;;;;;9686567;30;20137;-88
2022/09/04 07:05:57;;;;;;;14.32;8.88;;;15.60;99.90;;;;;;9663371;30;20037;-85
2022/09/04 07:11:03;;;;;;;13.07;8.25;;;15.70;99.90;;;;;;9684539;30;20522;-88
2022/09/04 07:16:40;;;;;;;12.70;7.60;;;15.90;99.90;;;;;;9665116;30;20045;-87
2022/09/04 07:22:19;;;;;;;11.05;7.50;;;16.10;99.90;;;;;;9676578;30;20083;-85
2022/09/04 07:27:57;;;;;;;10.65;7.28;;;16.10;99.90;;;;;;9696844;30;20124;-86
2022/09/04 07:33:21;;;;;;;12.57;7.93;;;16.10;99.90;;;;;;9688056;30;20130;-86
2022/09/04 07:39:11;;;;;;;12.35;7.55;;;16.20;99.90;;;;;;9633608;30;20869;-86
2022/09/04 07:44:37;;;;;;;12.35;7.50;;;16.60;99.90;;;;;;9653966;30;20042;-87
2022/09/04 07:49:48;;;;;;;;;;;17.00;99.90;;;;;;9690355;30;20030;-85
2022/09/04 07:55:26;;;;;;;13.38;7.90;;;17.10;99.90;;;;;;9694599;30;19985;-87
2022/09/04 08:00:33;;;;;;;10.98;7.10;;;17.20;99.90;;;;;;9686027;30;20072;-87
2022/09/04 08:05:44;;;;;;;11.60;6.05;;;17.40;99.90;;;;;;9694768;30;20053;-88
2022/09/04 08:11:22;;;;;;;12.07;6.38;;;17.40;99.90;;;;;;9688525;30;20380;-88
2022/09/04 08:16:57;;;;;;;7.55;5.78;;;17.40;99.90;;;;;;9697229;30;20128;-86
2022/09/04 08:21:58;;;;;;;9.15;5.82;;;17.50;99.90;;;;;;9695227;30;20053;-89
2022/09/04 08:27:29;;;;;;;13.05;6.53;;;18.10;99.90;;;;;;9685697;30;20750;-88
2022/09/04 08:32:54;;;;;;;9.77;5.57;;;18.40;99.90;;;;;;9680560;30;20052;-87
2022/09/04 08:38:32;;;;;;;9.52;5.65;;;18.50;99.90;;;;;;9687626;30;20046;-88
2022/09/04 08:43:49;;;;;;;9.95;4.30;;;18.70;99.90;;;;;;9676265;30;20045;-87
2022/09/04 08:49:46;;;;;;;8.25;4.80;;;19.00;98.80;;;;;;9678666;30;20060;-86
2022/09/04 08:55:07;;;;;;;10.07;5.07;;;19.20;97.50;;;;;;9658397;30;20112;-86
2022/09/04 09:00:34;;;;;;;7.88;4.57;;;19.30;97.30;;;;;;9686370;30;20096;-85
2022/09/04 09:06:05;;;;;;;5.22;3.78;;;19.20;95.60;;;;;;9676594;30;20034;-86
2022/09/04 09:11:23;;;;;;;9.80;4.55;;;19.00;96.60;;;;;;9679855;30;20066;-84
2022/09/04 09:16:41;;;;;;;10.85;5.63;;;19.10;96.10;;;;;;9681170;30;20521;-85
2022/09/04 09:22:11;;;;;;;6.85;4.60;;;19.40;96.20;;;;;;9688575;30;20061;-85
2022/09/04 09:27:24;;;;;;;9.43;4.90;;;19.40;94.70;;;;;;9677037;30;20068;-86
2022/09/04 09:32:56;;;;;;;4.63;3.22;;;19.50;94.70;;;;;;9685024;30;20057;-85
2022/09/04 09:38:09;;;;;;;5.15;3.30;;;20.10;94.80;;;;;;9695597;30;20049;-85
2022/09/04 09:43:28;;;;;;;8.32;3.10;;;20.60;93.80;;;;;;9683427;30;20387;-87
2022/09/04 09:49:06;;;;;;;5.63;3.00;;;20.80;93.30;;;;;;9679054;30;20038;-86
2022/09/04 09:54:50;;;;;;;5.32;3.88;;;21.20;92.90;;;;;;9676904;30;20061;-87
2022/09/04 10:00:04;;;;;;;6.72;3.38;;;21.20;91.80;;;;;;9678421;30;20815;-86
2022/09/04 10:05:30;;;;;;;4.60;3.13;;;21.40;91.30;;;;;;9681366;30;20590;-84
2022/09/04 10:10:58;;;;;;;5.13;2.83;;;21.50;89.00;;;;;;9661478;30;20504;-86
2022/09/04 10:21:58;;;;;;;3.55;2.83;;;21.50;88.90;;;;;;9677278;30;20053;-88
2022/09/04 10:27:43;;;;;;;4.07;3.40;;;21.20;88.30;;;;;;9683501;30;20049;-90
2022/09/04 10:33:05;;;;;;;6.35;3.67;;;21.00;88.60;;;;;;9692712;30;20381;-91
2022/09/04 10:38:05;;;;;;;4.03;3.47;;;20.90;90.10;;;;;;9685397;30;20519;-87
2022/09/04 10:43:43;;;;;;;4.05;3.65;;;21.30;89.20;;;;;;9682740;30;20052;-88
2022/09/04 10:49:28;;;;;;;4.57;3.22;;;21.40;87.20;;;;;;9685216;30;20045;-87
2022/09/04 11:00:57;;;;;;;5.20;3.35;;;21.00;89.50;;;;;;9687900;30;20054;-86
2022/09/04 11:18:42;;;;;;;5.07;3.80;;;20.90;90.50;;;;;;9676916;30;20046;-87
2022/09/04 11:24:14;;;;;;;5.43;3.97;;;21.20;90.10;;;;;;9531861;31;20089;-89
2022/09/04 11:29:44;;;;;;;4.57;3.67;;;21.20;89.50;;;;;;9653050;30;20053;-86
2022/09/04 11:34:45;;;;;;;7.93;4.07;;;21.00;90.10;;;;;;9680322;30;20566;-84
2022/09/04 11:40:23;;;;;;;4.30;3.47;;;20.80;90.50;;;;;;9683556;30;20046;-84
2022/09/04 11:45:47;;;;;;;7.13;3.92;;;20.80;90.40;;;;;;9678092;30;20045;-84
2022/09/04 11:51:33;;;;;;;3.90;3.45;;;20.70;90.70;;;;;;9683654;30;20038;-86
2022/09/04 11:56:33;;;;;;;4.77;3.50;;;20.70;91.30;;;;;;9650772;30;20407;-84
2022/09/04 12:01:55;;;;;;;4.50;3.65;;;20.70;91.30;;;;;;9679956;30;20063;-84
2022/09/04 12:07:15;;;;;;;7.07;3.42;;;20.70;90.40;;;;;;9685434;30;20038;-85
2022/09/04 12:12:38;;;;;;;4.53;3.65;;;20.80;91.20;;;;;;9685832;30;20675;-84
2022/09/04 12:18:08;;;;;;;8.90;3.95;;;20.90;91.40;;;;;;9683293;30;20042;-83
2022/09/04 12:23:48;;;;;;;6.30;4.10;;;20.90;91.30;;;;;;9680653;30;20042;-84
2022/09/04 12:29:06;;;;;;;4.82;4.03;;;21.30;91.70;;;;;;9679028;30;20030;-83
2022/09/04 12:34:32;;;;;;;5.60;4.55;;;21.50;90.90;;;;;;9680242;30;20103;-82
2022/09/04 12:39:53;;;;;;;5.40;4.25;;;21.30;90.50;;;;;;9677980;30;20046;-84
2022/09/04 12:45:08;;;;;;;6.60;4.78;;;21.30;90.80;;;;;;9666896;30;20526;-83
2022/09/04 12:50:39;;;;;;;5.82;4.50;;;21.10;90.60;;;;;;9675172;30;20041;-84
2022/09/04 12:55:57;;;;;;;7.70;4.60;;;21.30;91.20;;;;;;9685868;30;20189;-84
2022/09/04 13:01:21;;;;;;;6.68;4.35;;;21.30;90.70;;;;;;9680533;30;20057;-86
2022/09/04 13:06:50;;;;;;;5.90;4.53;;;21.30;90.60;;;;;;9660336;30;20049;-83
2022/09/04 13:11:56;;;;;;;7.15;4.35;;;21.40;91.40;;;;;;9674608;30;20055;-84
2022/09/04 13:17:18;;;;;;;6.68;4.45;;;21.90;91.80;;;;;;9671384;30;20038;-86
2022/09/04 13:22:27;;;;;;;7.78;4.75;;;22.20;90.40;;;;;;9674845;30;20050;-84
2022/09/04 13:28:01;;;;;;;7.00;4.97;;;22.10;89.10;;;;;;9674709;30;20499;-82
2022/09/04 13:33:14;;;;;;;5.93;4.82;;;21.90;90.40;;;;;;9672992;30;20038;-83
2022/09/04 13:38:33;;;;;;;6.40;5.00;;;21.80;90.40;;;;;;9678968;30;20050;-83
2022/09/04 13:44:24;;;;;;;7.05;5.00;;;21.70;90.80;;;;;;9683229;30;20123;-85
2022/09/04 13:49:30;;;;;;;7.75;5.25;;;21.70;91.10;;;;;;9600170;30;20192;-84
2022/09/04 13:54:51;;;;;;;6.90;5.18;;;21.70;90.70;;;;;;9694396;30;20053;-84
2022/09/04 13:59:57;;;;;;;7.30;5.45;;;21.60;90.60;;;;;;9676106;30;20060;-84
2022/09/04 14:05:21;;;;;;;8.80;5.65;;;21.50;91.30;;;;;;9672952;30;20591;-84
2022/09/04 14:10:29;;;;;;;7.32;5.03;;;21.50;91.30;;;;;;9695623;30;20428;-82
2022/09/04 14:15:56;;;;;;;6.65;5.07;;;21.40;91.30;;;;;;9689733;30;20049;-83
2022/09/04 14:21:18;;;;;;;6.43;4.97;;;21.30;91.70;;;;;;9688947;30;20140;-84
2022/09/04 14:26:46;;;;;;;10.90;6.38;;;21.30;91.70;;;;;;9681705;30;20038;-82
2022/09/04 14:32:04;;;;;;;8.52;5.47;;;21.20;91.90;;;;;;9679493;30;20335;-86
2022/09/04 14:37:34;;;;;;;7.55;5.85;;;21.10;92.30;;;;;;9682064;30;20072;-83
2022/09/04 14:43:15;;;;;;;6.93;4.93;;;21.00;92.40;;;;;;9683051;30;20491;-86
2022/09/04 14:48:22;;;;;;;7.28;5.30;;;20.80;92.90;;;;;;9681954;30;20041;-85
2022/09/04 14:53:32;;;;;;;9.55;5.57;;;20.70;93.30;;;;;;9677952;30;20050;-86
2022/09/04 14:58:41;;;;;;;11.35;6.28;;;20.50;93.20;;;;;;9681090;30;20103;-84
2022/09/04 15:03:54;;;;;;;7.97;5.50;;;20.40;93.70;;;;;;9683414;30;20046;-83
2022/09/04 15:08:56;;;;;;;7.88;6.10;;;20.40;94.10;;;;;;9689252;30;20038;-83
2022/09/04 15:14:23;;;;;;;10.95;6.63;;;20.30;94.40;;;;;;9687502;30;20559;-84
2022/09/04 15:19:27;;;;;;;6.95;5.25;;;20.20;94.70;;;;;;9685148;30;20126;-83
2022/09/04 15:24:36;;;;;;;7.10;5.80;;;20.10;95.20;;;;;;9706885;30;20400;-83
2022/09/04 15:29:52;;;;;;;6.82;5.30;;;20.00;95.70;;;;;;9686798;30;20037;-83
2022/09/04 15:35:14;;;;;;;6.57;5.60;;;19.90;96.30;;;;;;9678616;30;20049;-85
2022/09/04 15:40:26;;;;;;;9.00;5.38;;;19.80;96.90;;;;;;9684194;30;20053;-83
2022/09/04 15:45:46;;;;;;;7.82;5.45;;;19.70;97.40;;;;;;9677982;30;20117;-84
2022/09/04 15:51:10;;;;;;;8.02;6.00;;;19.60;97.50;;;;;;9675554;30;20087;-82
2022/09/04 15:56:19;;;;;;;11.60;7.95;;;19.50;97.80;;;;;;9682942;30;20057;-83
2022/09/04 16:01:30;;;;;;;8.73;6.20;;;19.40;98.50;;;;;;9695855;30;20081;-86
2022/09/04 16:07:02;;;;;;;9.07;7.07;;;19.30;98.90;;;;;;9682229;30;20042;-83
2022/09/04 16:12:16;;;;;;;13.02;9.02;;;19.30;99.40;;;;;;9698014;30;20141;-83
2022/09/04 16:17:24;;;;;;;13.43;8.73;;;19.20;99.90;;;;;;9670016;30;20106;-85
2022/09/04 16:22:33;;;;;;;12.95;8.82;;;19.10;99.90;;;;;;9695787;30;20042;-82
2022/09/04 16:27:44;;;;;;;11.55;7.25;;;18.90;99.90;;;;;;9692623;30;20042;-82
2022/09/04 16:32:45;;;;;;;10.45;7.40;;;18.80;99.90;;;;;;9674850;30;20033;-84
2022/09/04 16:38:10;;;;;;;10.65;7.88;;;18.80;99.90;;;;;;9688765;30;20049;-81
2022/09/04 16:43:17;;;;;;;12.60;8.00;;;18.70;99.90;;;;;;9670297;30;20149;-82
2022/09/04 16:48:31;;;;;;;12.60;8.18;;;18.60;99.90;;;;;;9678455;30;20689;-83
2022/09/04 16:53:49;;;;;;;12.88;8.15;;;18.50;99.90;;;;;;9679640;30;20062;-82
2022/09/04 16:58:55;;;;;;;11.35;8.07;;;18.40;99.90;;;;;;9677730;30;20053;-83
2022/09/04 17:04:27;;;;;;;11.20;7.63;;;18.40;99.90;;;;;;9684209;30;20042;-81
2022/09/04 17:09:45;;;;;;;11.13;7.75;;;18.40;99.90;;;;;;9693569;30;20052;-81
2022/09/04 17:15:00;;;;;;;10.93;7.43;;;18.30;99.90;;;;;;9682980;30;20037;-80
2022/09/04 17:20:08;;;;;;;10.30;7.07;;;18.30;99.90;;;;;;9686499;30;20050;-82
2022/09/04 17:25:15;;;;;;;12.13;8.48;;;18.20;99.90;;;;;;9678337;30;20797;-81
2022/09/04 17:30:28;;;;;;;12.38;8.45;;;18.20;99.90;;;;;;9703931;30;20124;-81
2022/09/04 17:36:10;;;;;;;16.83;12.85;;;18.00;99.90;;;;;;9701404;30;20062;-81
2022/09/04 17:41:22;;;;;;;23.35;20.95;;;17.90;99.90;;;;;;9686092;30;20081;-83
2022/09/04 17:46:27;;;;;;;15.30;12.23;;;17.70;99.90;;;;;;9683877;30;20072;-82
2022/09/04 17:51:32;;;;;;;15.75;12.00;;;17.50;99.90;;;;;;9694595;30;20032;-81
2022/09/04 17:56:39;;;;;;;13.55;11.50;;;17.30;99.90;;;;;;9701300;30;20458;-81
2022/09/04 18:02:08;;;;;;;12.32;9.43;;;17.20;99.90;;;;;;9684269;30;20083;-81
2022/09/04 18:07:22;;;;;;;12.57;10.35;;;17.30;99.90;;;;;;9689893;30;20038;-79
2022/09/04 18:12:48;;;;;;;14.80;9.90;;;17.30;99.90;;;;;;9687932;30;20128;-81
2022/09/04 18:18:15;;;;;;;14.55;10.20;;;17.20;99.90;;;;;;9685922;30;20041;-81
2022/09/04 18:23:19;;;;;;;14.07;9.73;;;17.20;99.90;;;;;;9705669;30;20048;-83
2022/09/04 18:28:38;;;;;;;15.13;10.30;;;17.10;99.90;;;;;;9695527;30;20042;-81
2022/09/04 18:33:45;;;;;;;15.52;10.55;;;17.10;99.90;;;;;;9691050;30;20045;-83
2022/09/04 18:39:03;;;;;;;49.45;29.10;;;17.10;99.90;;;;;;9697771;30;20050;-83
2022/09/04 18:44:12;;;;;;;19.95;13.40;;;17.00;99.90;;;;;;9677264;30;20408;-81
2022/09/04 18:49:21;;;;;;;13.90;9.82;;;17.00;99.90;;;;;;9705008;30;20034;-82
2022/09/04 18:54:40;;;;;;;15.00;9.98;;;16.90;99.90;;;;;;9688497;30;20125;-81
2022/09/04 18:59:46;;;;;;;15.25;10.63;;;16.90;99.90;;;;;;9677870;30;20046;-83
2022/09/04 19:05:08;;;;;;;13.93;9.95;;;16.80;99.90;;;;;;9667641;30;20458;-82
2022/09/04 19:10:25;;;;;;;12.10;9.13;;;16.80;99.90;;;;;;9694496;30;20484;-83
2022/09/04 19:16:00;;;;;;;15.75;10.88;;;16.70;99.90;;;;;;9698633;30;20092;-85
2022/09/04 19:21:07;;;;;;;15.38;11.05;;;16.60;99.90;;;;;;9705115;30;20057;-83
2022/09/04 19:26:27;;;;;;;19.08;13.70;;;16.40;99.90;;;;;;9702144;30;20095;-81
2022/09/04 19:31:32;;;;;;;22.38;14.20;;;16.30;99.90;;;;;;9693478;30;20396;-81
2022/09/04 19:36:50;;;;;;;19.58;14.57;;;16.20;99.90;;;;;;9689281;30;20127;-83
2022/09/04 19:41:57;;;;;;;22.08;15.18;;;16.30;99.90;;;;;;9689188;30;20046;-84
2022/09/04 19:47:35;;;;;;;20.15;14.52;;;16.30;99.90;;;;;;9706391;30;20099;-86
2022/09/04 19:52:48;;;;;;;18.40;13.23;;;16.50;99.90;;;;;;9687973;30;20065;-82
2022/09/04 19:57:59;;;;;;;30.17;19.38;;;16.40;99.90;;;;;;9691456;30;20806;-83
2022/09/04 20:03:06;;;;;;;26.42;16.85;;;16.50;99.90;;;;;;9692839;30;20042;-82
2022/09/04 20:08:13;;;;;;;23.02;17.17;;;16.40;99.90;;;;;;9708205;30;20459;-82
2022/09/04 20:13:39;;;;;;;29.13;19.05;;;16.40;99.90;;;;;;9694909;30;20462;-81
2022/09/04 20:18:45;;;;;;;27.92;17.80;;;16.40;99.90;;;;;;9703694;30;20491;-84
2022/09/04 20:24:09;;;;;;;25.63;18.30;;;16.40;99.90;;;;;;9699613;30;20030;-83
2022/09/04 20:29:25;;;;;;;27.02;17.80;;;16.30;99.90;;;;;;9692818;30;20120;-81
2022/09/04 20:34:28;;;;;;;28.35;19.25;;;16.20;99.90;;;;;;9700834;30;20088;-82
2022/09/04 20:39:42;;;;;;;26.25;17.88;;;16.00;99.90;;;;;;9699185;30;20069;-80
2022/09/04 20:44:50;;;;;;;24.42;18.15;;;15.90;99.90;;;;;;9681369;30;20557;-81
2022/09/04 20:50:03;;;;;;;26.35;18.25;;;15.90;99.90;;;;;;9695230;30;20060;-82
2022/09/04 20:55:15;;;;;;;24.27;16.13;;;15.70;99.90;;;;;;9701546;30;20145;-82
2022/09/04 21:00:16;;;;;;;20.73;15.23;;;15.70;99.90;;;;;;9693330;30;20053;-83
2022/09/04 21:05:46;;;;;;;25.00;15.80;;;15.70;99.90;;;;;;9674406;30;20475;-83
2022/09/04 21:11:07;;;;;;;21.92;15.20;;;15.70;99.90;;;;;;9658010;30;20056;-81
2022/09/04 21:16:28;;;;;;;20.88;13.85;;;15.60;99.90;;;;;;9678467;30;20696;-82
2022/09/04 21:21:49;;;;;;;20.20;13.65;;;15.60;99.90;;;;;;9682442;30;20116;-81
2022/09/04 21:27:08;;;;;;;20.00;14.40;;;15.60;99.90;;;;;;9668294;30;20046;-82
2022/09/04 21:32:29;;;;;;;17.70;12.52;;;15.50;99.90;;;;;;9678334;30;20554;-84
2022/09/04 21:38:02;;;;;;;15.18;10.90;;;15.40;99.90;;;;;;9681962;30;20124;-82
2022/09/04 21:43:21;;;;;;;14.45;10.40;;;15.40;99.90;;;;;;9648303;30;20152;-83
2022/09/04 21:48:56;;;;;;;13.35;10.00;;;15.40;99.90;;;;;;9681077;30;20046;-83
2022/09/04 21:54:27;;;;;;;14.23;8.77;;;15.40;99.90;;;;;;9674349;30;20069;-82
2022/09/04 21:59:40;;;;;;;11.48;8.85;;;15.40;99.90;;;;;;9677565;30;20057;-83
2022/09/04 22:05:14;;;;;;;10.50;8.32;;;15.30;99.90;;;;;;9681003;30;20415;-81
2022/09/04 22:10:27;;;;;;;9.88;7.85;;;15.30;99.90;;;;;;9678942;30;20048;-82
2022/09/04 22:15:41;;;;;;;12.30;8.35;;;15.40;99.90;;;;;;9692291;30;20034;-81
2022/09/04 22:21:23;;;;;;;11.30;8.02;;;15.50;99.90;;;;;;9694880;30;20124;-82
2022/09/04 22:27:17;;;;;;;11.27;8.55;;;15.40;99.90;;;;;;9647482;30;20057;-81
2022/09/04 22:32:58;;;;;;;11.85;8.57;;;15.30;99.90;;;;;;9624119;30;20097;-81
2022/09/04 22:38:28;;;;;;;10.30;8.18;;;15.20;99.90;;;;;;9688069;30;20046;-84
2022/09/04 22:43:31;;;;;;;12.27;8.75;;;15.10;99.90;;;;;;9672886;30;20522;-83
2022/09/04 22:48:43;;;;;;;10.50;8.57;;;15.00;99.90;;;;;;9695680;30;20514;-81
2022/09/04 22:53:50;;;;;;;11.15;8.68;;;15.00;99.90;;;;;;9692115;30;20162;-81
2022/09/04 22:59:23;;;;;;;12.43;8.88;;;14.90;99.90;;;;;;9685039;30;20055;-81
2022/09/04 23:04:56;;;;;;;10.82;8.65;;;14.90;99.90;;;;;;9679683;30;20033;-81
2022/09/04 23:10:23;;;;;;;10.10;8.38;;;14.90;99.90;;;;;;9677369;30;20404;-81
2022/09/04 23:15:51;;;;;;;11.15;8.30;;;14.80;99.90;;;;;;9661713;30;20050;-81
2022/09/04 23:21:15;;;;;;;11.27;8.40;;;14.70;99.90;;;;;;9676126;30;20603;-80
2022/09/04 23:26:22;;;;;;;13.57;7.88;;;14.60;99.90;;;;;;9675103;30;20128;-81
2022/09/04 23:31:40;;;;;;;10.70;7.88;;;14.50;99.90;;;;;;9683070;30;20045;-81
2022/09/04 23:37:08;;;;;;;9.73;7.90;;;14.50;99.90;;;;;;9668770;30;20042;-83
2022/09/04 23:42:44;;;;;;;10.70;8.65;;;14.40;99.90;;;;;;9679601;30;20705;-81
2022/09/04 23:47:57;;;;;;;11.18;8.15;;;14.30;99.90;;;;;;9681550;30;20049;-81
2022/09/04 23:53:15;;;;;;;9.40;8.02;;;14.30;99.90;;;;;;9697865;30;20697;-81
